sensor_id;sensor_type;location;lat;lon;timestamp;temperature;humidity
28845;DHT22;15976;47.938;7.758;2023-11-18T00:01:06;7.20;91.80
28845;DHT22;15976;47.938;7.758;2023-11-18T00:03:35;7.20;91.80
28845;DHT22;15976;47.938;7.758;2023-11-18T00:06:02;7.20;91.70
28845;DHT22;15976;47.938;7.758;2023-11-18T00:08:30;7.20;91.70
28845;DHT22;15976;47.938;7.758;2023-11-18T00:10:58;7.10;91.60
28845;DHT22;15976;47.938;7.758;2023-11-18T00:13:25;7.10;91.60
28845;DHT22;15976;47.938;7.758;2023-11-18T00:15:53;7.10;91.70
28845;DHT22;15976;47.938;7.758;2023-11-18T00:18:20;7.10;91.60
28845;DHT22;15976;47.938;7.758;2023-11-18T00:20:47;7.10;91.60
28845;DHT22;15976;47.938;7.758;2023-11-18T00:23:14;7.10;91.70
28845;DHT22;15976;47.938;7.758;2023-11-18T00:25:44;7.00;91.70
28845;DHT22;15976;47.938;7.758;2023-11-18T00:28:12;7.00;91.80
28845;DHT22;15976;47.938;7.758;2023-11-18T00:30:40;7.00;91.80
28845;DHT22;15976;47.938;7.758;2023-11-18T00:33:07;7.00;91.80
28845;DHT22;15976;47.938;7.758;2023-11-18T00:35:35;7.00;91.80
28845;DHT22;15976;47.938;7.758;2023-11-18T00:38:02;7.00;91.80
28845;DHT22;15976;47.938;7.758;2023-11-18T00:40:29;7.00;91.80
28845;DHT22;15976;47.938;7.758;2023-11-18T00:42:57;7.00;91.70
28845;DHT22;15976;47.938;7.758;2023-11-18T00:45:24;7.00;91.80
28845;DHT22;15976;47.938;7.758;2023-11-18T00:47:51;7.00;91.80
28845;DHT22;15976;47.938;7.758;2023-11-18T00:50:18;7.00;91.40
28845;DHT22;15976;47.938;7.758;2023-11-18T00:52:45;7.00;91.70
28845;DHT22;15976;47.938;7.758;2023-11-18T00:55:15;7.00;91.70
28845;DHT22;15976;47.938;7.758;2023-11-18T00:57:45;6.90;91.60
28845;DHT22;15976;47.938;7.758;2023-11-18T01:00:14;6.90;91.70
28845;DHT22;15976;47.938;7.758;2023-11-18T01:02:44;6.90;91.70
28845;DHT22;15976;47.938;7.758;2023-11-18T01:05:13;6.80;91.70
28845;DHT22;15976;47.938;7.758;2023-11-18T01:07:41;6.80;91.70
28845;DHT22;15976;47.938;7.758;2023-11-18T01:10:08;6.80;91.70
28845;DHT22;15976;47.938;7.758;2023-11-18T01:12:37;6.80;91.60
28845;DHT22;15976;47.938;7.758;2023-11-18T01:15:04;6.70;91.60
28845;DHT22;15976;47.938;7.758;2023-11-18T01:17:32;6.80;91.60
28845;DHT22;15976;47.938;7.758;2023-11-18T01:19:59;6.70;91.30
28845;DHT22;15976;47.938;7.758;2023-11-18T01:22:28;6.70;91.20
28845;DHT22;15976;47.938;7.758;2023-11-18T01:24:56;6.80;91.20
28845;DHT22;15976;47.938;7.758;2023-11-18T01:27:26;6.80;91.10
28845;DHT22;15976;47.938;7.758;2023-11-18T01:29:54;6.80;91.10
28845;DHT22;15976;47.938;7.758;2023-11-18T01:32:21;6.80;91.10
28845;DHT22;15976;47.938;7.758;2023-11-18T01:34:48;6.80;91.00
28845;DHT22;15976;47.938;7.758;2023-11-18T01:37:17;6.80;91.10
28845;DHT22;15976;47.938;7.758;2023-11-18T01:39:44;6.80;91.10
28845;DHT22;15976;47.938;7.758;2023-11-18T01:42:12;6.80;91.10
28845;DHT22;15976;47.938;7.758;2023-11-18T01:44:39;6.70;91.20
28845;DHT22;15976;47.938;7.758;2023-11-18T01:47:07;6.80;91.30
28845;DHT22;15976;47.938;7.758;2023-11-18T01:49:37;6.80;91.20
28845;DHT22;15976;47.938;7.758;2023-11-18T01:52:07;6.70;91.30
28845;DHT22;15976;47.938;7.758;2023-11-18T01:54:36;6.70;91.40
28845;DHT22;15976;47.938;7.758;2023-11-18T01:57:05;6.80;91.50
28845;DHT22;15976;47.938;7.758;2023-11-18T01:59:33;6.80;91.40
28845;DHT22;15976;47.938;7.758;2023-11-18T02:02:01;6.80;91.50
28845;DHT22;15976;47.938;7.758;2023-11-18T02:04:28;6.80;91.50
28845;DHT22;15976;47.938;7.758;2023-11-18T02:06:57;6.80;91.50
28845;DHT22;15976;47.938;7.758;2023-11-18T02:09:25;6.80;91.50
28845;DHT22;15976;47.938;7.758;2023-11-18T02:15:04;6.80;91.50
28845;DHT22;15976;47.938;7.758;2023-11-18T02:17:41;6.70;91.30
28845;DHT22;15976;47.938;7.758;2023-11-18T02:20:10;6.70;91.40
28845;DHT22;15976;47.938;7.758;2023-11-18T02:22:43;6.70;91.40
28845;DHT22;15976;47.938;7.758;2023-11-18T02:25:16;6.60;91.40
28845;DHT22;15976;47.938;7.758;2023-11-18T02:27:44;6.70;91.40
28845;DHT22;15976;47.938;7.758;2023-11-18T02:30:16;6.70;91.40
28845;DHT22;15976;47.938;7.758;2023-11-18T02:32:54;6.60;91.40
28845;DHT22;15976;47.938;7.758;2023-11-18T02:35:40;6.60;91.40
28845;DHT22;15976;47.938;7.758;2023-11-18T02:38:10;6.60;91.80
28845;DHT22;15976;47.938;7.758;2023-11-18T02:40:41;6.60;91.50
28845;DHT22;15976;47.938;7.758;2023-11-18T02:43:11;6.60;91.50
28845;DHT22;15976;47.938;7.758;2023-11-18T02:45:38;6.50;91.30
28845;DHT22;15976;47.938;7.758;2023-11-18T02:48:07;6.60;91.30
28845;DHT22;15976;47.938;7.758;2023-11-18T02:50:34;6.50;91.20
28845;DHT22;15976;47.938;7.758;2023-11-18T02:53:05;6.50;91.20
28845;DHT22;15976;47.938;7.758;2023-11-18T02:55:32;6.50;91.30
28845;DHT22;15976;47.938;7.758;2023-11-18T02:58:01;6.50;91.30
28845;DHT22;15976;47.938;7.758;2023-11-18T03:00:33;6.40;91.20
28845;DHT22;15976;47.938;7.758;2023-11-18T03:02:59;6.40;91.20
28845;DHT22;15976;47.938;7.758;2023-11-18T03:05:27;6.40;91.20
28845;DHT22;15976;47.938;7.758;2023-11-18T03:07:54;6.30;91.10
28845;DHT22;15976;47.938;7.758;2023-11-18T03:10:25;6.30;91.10
28845;DHT22;15976;47.938;7.758;2023-11-18T03:12:53;6.20;91.10
28845;DHT22;15976;47.938;7.758;2023-11-18T03:15:21;6.20;91.20
28845;DHT22;15976;47.938;7.758;2023-11-18T03:17:50;6.20;91.10
28845;DHT22;15976;47.938;7.758;2023-11-18T03:20:19;6.20;91.10
28845;DHT22;15976;47.938;7.758;2023-11-18T03:22:47;6.10;91.20
28845;DHT22;15976;47.938;7.758;2023-11-18T03:25:14;6.10;91.10
28845;DHT22;15976;47.938;7.758;2023-11-18T03:27:42;6.10;91.10
28845;DHT22;15976;47.938;7.758;2023-11-18T03:30:09;6.10;91.10
28845;DHT22;15976;47.938;7.758;2023-11-18T03:32:37;6.10;91.00
28845;DHT22;15976;47.938;7.758;2023-11-18T03:35:05;6.10;91.10
28845;DHT22;15976;47.938;7.758;2023-11-18T03:37:37;6.10;91.00
28845;DHT22;15976;47.938;7.758;2023-11-18T03:40:09;6.10;91.00
28845;DHT22;15976;47.938;7.758;2023-11-18T03:42:41;6.10;91.00
28845;DHT22;15976;47.938;7.758;2023-11-18T03:45:09;6.00;91.10
28845;DHT22;15976;47.938;7.758;2023-11-18T03:47:37;6.00;91.10
28845;DHT22;15976;47.938;7.758;2023-11-18T03:50:04;6.00;91.00
28845;DHT22;15976;47.938;7.758;2023-11-18T03:52:32;6.00;90.90
28845;DHT22;15976;47.938;7.758;2023-11-18T03:55:03;6.00;90.80
28845;DHT22;15976;47.938;7.758;2023-11-18T03:57:32;6.00;90.80
28845;DHT22;15976;47.938;7.758;2023-11-18T03:59:59;6.00;90.90
28845;DHT22;15976;47.938;7.758;2023-11-18T04:02:26;6.00;91.00
28845;DHT22;15976;47.938;7.758;2023-11-18T04:04:54;6.00;91.00
28845;DHT22;15976;47.938;7.758;2023-11-18T04:07:21;6.00;90.80
28845;DHT22;15976;47.938;7.758;2023-11-18T04:09:48;6.00;90.80
28845;DHT22;15976;47.938;7.758;2023-11-18T04:12:15;6.10;90.80
28845;DHT22;15976;47.938;7.758;2023-11-18T04:14:43;6.00;90.70
28845;DHT22;15976;47.938;7.758;2023-11-18T04:17:10;6.00;90.70
28845;DHT22;15976;47.938;7.758;2023-11-18T04:19:37;6.00;90.80
28845;DHT22;15976;47.938;7.758;2023-11-18T04:22:05;6.00;90.60
28845;DHT22;15976;47.938;7.758;2023-11-18T04:24:32;6.00;90.60
28845;DHT22;15976;47.938;7.758;2023-11-18T04:27:02;6.00;90.60
28845;DHT22;15976;47.938;7.758;2023-11-18T04:29:29;6.00;90.50
28845;DHT22;15976;47.938;7.758;2023-11-18T04:31:57;6.00;90.50
28845;DHT22;15976;47.938;7.758;2023-11-18T04:34:24;6.00;90.60
28845;DHT22;15976;47.938;7.758;2023-11-18T04:36:51;6.00;90.70
28845;DHT22;15976;47.938;7.758;2023-11-18T04:39:18;6.00;90.70
28845;DHT22;15976;47.938;7.758;2023-11-18T04:41:47;6.10;90.70
28845;DHT22;15976;47.938;7.758;2023-11-18T04:44:14;6.10;90.70
28845;DHT22;15976;47.938;7.758;2023-11-18T04:46:43;6.10;90.70
28845;DHT22;15976;47.938;7.758;2023-11-18T04:49:11;6.10;90.70
28845;DHT22;15976;47.938;7.758;2023-11-18T04:51:38;6.10;90.60
28845;DHT22;15976;47.938;7.758;2023-11-18T04:54:05;6.20;90.50
28845;DHT22;15976;47.938;7.758;2023-11-18T04:56:34;6.20;90.40
28845;DHT22;15976;47.938;7.758;2023-11-18T04:59:04;6.20;90.40
28845;DHT22;15976;47.938;7.758;2023-11-18T05:01:32;6.20;90.50
28845;DHT22;15976;47.938;7.758;2023-11-18T05:04:00;6.20;90.40
28845;DHT22;15976;47.938;7.758;2023-11-18T05:06:27;6.20;90.40
28845;DHT22;15976;47.938;7.758;2023-11-18T05:08:54;6.20;90.30
28845;DHT22;15976;47.938;7.758;2023-11-18T05:11:21;6.30;90.20
28845;DHT22;15976;47.938;7.758;2023-11-18T05:13:48;6.30;90.10
28845;DHT22;15976;47.938;7.758;2023-11-18T05:16:16;6.20;90.10
28845;DHT22;15976;47.938;7.758;2023-11-18T05:18:43;6.20;90.00
28845;DHT22;15976;47.938;7.758;2023-11-18T05:21:10;6.20;89.90
28845;DHT22;15976;47.938;7.758;2023-11-18T05:23:38;6.30;89.70
28845;DHT22;15976;47.938;7.758;2023-11-18T05:26:05;6.30;89.40
28845;DHT22;15976;47.938;7.758;2023-11-18T05:28:33;6.40;89.10
28845;DHT22;15976;47.938;7.758;2023-11-18T05:31:00;6.40;88.60
28845;DHT22;15976;47.938;7.758;2023-11-18T05:33:31;6.40;88.20
28845;DHT22;15976;47.938;7.758;2023-11-18T05:36:01;6.50;87.80
28845;DHT22;15976;47.938;7.758;2023-11-18T05:38:31;6.50;87.50
28845;DHT22;15976;47.938;7.758;2023-11-18T05:41:01;6.60;87.20
28845;DHT22;15976;47.938;7.758;2023-11-18T05:43:31;6.60;86.80
28845;DHT22;15976;47.938;7.758;2023-11-18T05:46:08;6.60;86.30
28845;DHT22;15976;47.938;7.758;2023-11-18T05:48:42;6.70;86.00
28845;DHT22;15976;47.938;7.758;2023-11-18T05:51:11;6.60;85.90
28845;DHT22;15976;47.938;7.758;2023-11-18T05:53:42;6.60;86.20
28845;DHT22;15976;47.938;7.758;2023-11-18T05:56:13;6.60;86.60
28845;DHT22;15976;47.938;7.758;2023-11-18T05:58:40;6.50;86.80
28845;DHT22;15976;47.938;7.758;2023-11-18T06:01:10;6.50;87.30
28845;DHT22;15976;47.938;7.758;2023-11-18T06:03:39;6.40;87.50
28845;DHT22;15976;47.938;7.758;2023-11-18T06:06:11;6.40;87.60
28845;DHT22;15976;47.938;7.758;2023-11-18T06:08:39;6.40;87.90
28845;DHT22;15976;47.938;7.758;2023-11-18T06:11:12;6.40;88.10
28845;DHT22;15976;47.938;7.758;2023-11-18T06:13:44;6.40;88.10
28845;DHT22;15976;47.938;7.758;2023-11-18T06:16:18;6.40;88.30
28845;DHT22;15976;47.938;7.758;2023-11-18T06:18:57;6.50;88.40
28845;DHT22;15976;47.938;7.758;2023-11-18T06:21:26;6.50;88.50
28845;DHT22;15976;47.938;7.758;2023-11-18T06:23:58;6.60;88.60
28845;DHT22;15976;47.938;7.758;2023-11-18T06:26:26;6.60;88.40
28845;DHT22;15976;47.938;7.758;2023-11-18T06:28:55;6.60;88.50
28845;DHT22;15976;47.938;7.758;2023-11-18T06:31:23;6.60;88.60
28845;DHT22;15976;47.938;7.758;2023-11-18T06:33:56;6.60;88.70
28845;DHT22;15976;47.938;7.758;2023-11-18T06:36:24;6.60;88.70
28845;DHT22;15976;47.938;7.758;2023-11-18T06:38:53;6.60;88.70
28845;DHT22;15976;47.938;7.758;2023-11-18T06:41:21;6.60;89.00
28845;DHT22;15976;47.938;7.758;2023-11-18T06:44:00;6.70;89.00
28845;DHT22;15976;47.938;7.758;2023-11-18T06:46:36;6.60;88.50
28845;DHT22;15976;47.938;7.758;2023-11-18T06:49:07;6.60;88.70
28845;DHT22;15976;47.938;7.758;2023-11-18T06:51:38;6.60;88.60
28845;DHT22;15976;47.938;7.758;2023-11-18T06:54:05;6.60;88.70
28845;DHT22;15976;47.938;7.758;2023-11-18T06:56:38;6.60;88.70
28845;DHT22;15976;47.938;7.758;2023-11-18T06:59:06;6.60;88.70
28845;DHT22;15976;47.938;7.758;2023-11-18T07:01:34;6.70;88.60
28845;DHT22;15976;47.938;7.758;2023-11-18T07:04:03;6.70;88.60
28845;DHT22;15976;47.938;7.758;2023-11-18T07:06:30;6.70;88.60
28845;DHT22;15976;47.938;7.758;2023-11-18T07:08:58;6.70;88.70
28845;DHT22;15976;47.938;7.758;2023-11-18T07:11:27;6.70;88.60
28845;DHT22;15976;47.938;7.758;2023-11-18T07:13:54;6.70;88.60
28845;DHT22;15976;47.938;7.758;2023-11-18T07:16:24;6.70;88.80
28845;DHT22;15976;47.938;7.758;2023-11-18T07:18:52;6.80;89.10
28845;DHT22;15976;47.938;7.758;2023-11-18T07:21:19;6.90;89.10
28845;DHT22;15976;47.938;7.758;2023-11-18T07:23:47;7.00;89.10
28845;DHT22;15976;47.938;7.758;2023-11-18T07:26:14;7.10;88.80
28845;DHT22;15976;47.938;7.758;2023-11-18T07:28:41;7.10;88.50
28845;DHT22;15976;47.938;7.758;2023-11-18T07:31:08;7.20;88.20
28845;DHT22;15976;47.938;7.758;2023-11-18T07:33:36;7.30;87.90
28845;DHT22;15976;47.938;7.758;2023-11-18T07:36:03;7.30;87.80
28845;DHT22;15976;47.938;7.758;2023-11-18T07:38:32;7.40;87.70
28845;DHT22;15976;47.938;7.758;2023-11-18T07:41:01;7.40;87.50
28845;DHT22;15976;47.938;7.758;2023-11-18T07:43:30;7.40;87.50
28845;DHT22;15976;47.938;7.758;2023-11-18T07:45:57;7.40;87.40
28845;DHT22;15976;47.938;7.758;2023-11-18T07:48:24;7.50;87.40
28845;DHT22;15976;47.938;7.758;2023-11-18T07:50:51;7.50;87.40
28845;DHT22;15976;47.938;7.758;2023-11-18T07:53:18;7.50;87.40
28845;DHT22;15976;47.938;7.758;2023-11-18T07:55:45;7.50;87.20
28845;DHT22;15976;47.938;7.758;2023-11-18T07:58:14;7.50;87.30
28845;DHT22;15976;47.938;7.758;2023-11-18T08:00:42;7.60;87.40
28845;DHT22;15976;47.938;7.758;2023-11-18T08:03:10;7.60;87.30
28845;DHT22;15976;47.938;7.758;2023-11-18T08:05:42;7.70;87.00
28845;DHT22;15976;47.938;7.758;2023-11-18T08:08:12;7.70;87.50
28845;DHT22;15976;47.938;7.758;2023-11-18T08:10:41;7.70;87.60
28845;DHT22;15976;47.938;7.758;2023-11-18T08:13:09;7.80;87.60
28845;DHT22;15976;47.938;7.758;2023-11-18T08:15:41;7.90;87.40
28845;DHT22;15976;47.938;7.758;2023-11-18T08:18:09;8.00;87.30
28845;DHT22;15976;47.938;7.758;2023-11-18T08:20:39;8.10;87.00
28845;DHT22;15976;47.938;7.758;2023-11-18T08:23:06;8.20;86.70
28845;DHT22;15976;47.938;7.758;2023-11-18T08:25:34;8.30;86.70
28845;DHT22;15976;47.938;7.758;2023-11-18T08:28:03;8.40;86.40
28845;DHT22;15976;47.938;7.758;2023-11-18T08:30:31;8.50;86.30
28845;DHT22;15976;47.938;7.758;2023-11-18T08:33:01;8.60;86.00
28845;DHT22;15976;47.938;7.758;2023-11-18T08:35:32;8.70;85.60
28845;DHT22;15976;47.938;7.758;2023-11-18T08:37:59;8.80;85.10
28845;DHT22;15976;47.938;7.758;2023-11-18T08:40:28;8.80;84.90
28845;DHT22;15976;47.938;7.758;2023-11-18T08:42:55;8.90;84.80
28845;DHT22;15976;47.938;7.758;2023-11-18T08:45:27;9.00;84.40
28845;DHT22;15976;47.938;7.758;2023-11-18T08:47:57;9.00;84.10
28845;DHT22;15976;47.938;7.758;2023-11-18T08:50:25;9.10;84.00
28845;DHT22;15976;47.938;7.758;2023-11-18T08:52:53;9.10;83.70
28845;DHT22;15976;47.938;7.758;2023-11-18T08:55:29;9.10;83.60
28845;DHT22;15976;47.938;7.758;2023-11-18T08:58:20;9.20;83.40
28845;DHT22;15976;47.938;7.758;2023-11-18T09:00:54;9.30;83.40
28845;DHT22;15976;47.938;7.758;2023-11-18T09:03:25;9.30;83.10
28845;DHT22;15976;47.938;7.758;2023-11-18T09:06:04;9.40;82.80
28845;DHT22;15976;47.938;7.758;2023-11-18T09:08:47;9.40;82.70
28845;DHT22;15976;47.938;7.758;2023-11-18T09:11:22;9.40;82.50
28845;DHT22;15976;47.938;7.758;2023-11-18T09:13:50;9.50;82.20
28845;DHT22;15976;47.938;7.758;2023-11-18T09:16:21;9.60;81.70
28845;DHT22;15976;47.938;7.758;2023-11-18T09:18:49;9.70;81.20
28845;DHT22;15976;47.938;7.758;2023-11-18T09:21:17;9.80;81.60
28845;DHT22;15976;47.938;7.758;2023-11-18T09:23:52;9.80;80.40
28845;DHT22;15976;47.938;7.758;2023-11-18T09:26:19;9.80;80.30
28845;DHT22;15976;47.938;7.758;2023-11-18T09:28:48;9.90;80.10
28845;DHT22;15976;47.938;7.758;2023-11-18T09:31:17;9.90;80.00
28845;DHT22;15976;47.938;7.758;2023-11-18T09:33:44;10.00;80.00
28845;DHT22;15976;47.938;7.758;2023-11-18T09:36:20;10.10;79.60
28845;DHT22;15976;47.938;7.758;2023-11-18T09:38:48;10.10;79.30
28845;DHT22;15976;47.938;7.758;2023-11-18T09:41:17;10.10;79.30
28845;DHT22;15976;47.938;7.758;2023-11-18T09:43:45;10.10;79.30
28845;DHT22;15976;47.938;7.758;2023-11-18T09:46:24;10.10;79.30
28845;DHT22;15976;47.938;7.758;2023-11-18T09:48:53;10.10;79.20
28845;DHT22;15976;47.938;7.758;2023-11-18T09:51:42;10.10;79.20
28845;DHT22;15976;47.938;7.758;2023-11-18T09:54:24;10.10;79.30
28845;DHT22;15976;47.938;7.758;2023-11-18T09:57:03;10.10;79.40
28845;DHT22;15976;47.938;7.758;2023-11-18T09:59:54;10.10;79.80
28845;DHT22;15976;47.938;7.758;2023-11-18T10:02:26;10.10;79.60
28845;DHT22;15976;47.938;7.758;2023-11-18T10:04:56;10.10;79.50
28845;DHT22;15976;47.938;7.758;2023-11-18T10:07:25;10.20;79.50
28845;DHT22;15976;47.938;7.758;2023-11-18T10:09:59;10.30;79.40
28845;DHT22;15976;47.938;7.758;2023-11-18T10:12:29;10.30;79.40
28845;DHT22;15976;47.938;7.758;2023-11-18T10:14:57;10.40;79.60
28845;DHT22;15976;47.938;7.758;2023-11-18T10:17:27;10.40;79.60
28845;DHT22;15976;47.938;7.758;2023-11-18T10:19:58;10.40;79.40
28845;DHT22;15976;47.938;7.758;2023-11-18T10:22:40;10.40;79.20
28845;DHT22;15976;47.938;7.758;2023-11-18T10:25:07;10.40;79.40
28845;DHT22;15976;47.938;7.758;2023-11-18T10:27:34;10.50;79.50
28845;DHT22;15976;47.938;7.758;2023-11-18T10:30:04;10.50;79.70
28845;DHT22;15976;47.938;7.758;2023-11-18T10:32:31;10.40;79.70
28845;DHT22;15976;47.938;7.758;2023-11-18T10:35:06;10.40;79.60
28845;DHT22;15976;47.938;7.758;2023-11-18T10:37:37;10.40;79.60
28845;DHT22;15976;47.938;7.758;2023-11-18T10:40:11;10.50;79.80
28845;DHT22;15976;47.938;7.758;2023-11-18T10:42:41;10.50;79.80
28845;DHT22;15976;47.938;7.758;2023-11-18T10:45:09;10.50;79.60
28845;DHT22;15976;47.938;7.758;2023-11-18T10:47:42;10.50;79.40
28845;DHT22;15976;47.938;7.758;2023-11-18T10:50:10;10.50;79.40
28845;DHT22;15976;47.938;7.758;2023-11-18T10:52:37;10.50;79.20
28845;DHT22;15976;47.938;7.758;2023-11-18T10:55:09;10.50;79.30
28845;DHT22;15976;47.938;7.758;2023-11-18T10:57:40;10.50;79.40
28845;DHT22;15976;47.938;7.758;2023-11-18T11:00:10;10.50;79.40
28845;DHT22;15976;47.938;7.758;2023-11-18T11:02:41;10.50;79.40
28845;DHT22;15976;47.938;7.758;2023-11-18T11:05:09;10.50;79.50
28845;DHT22;15976;47.938;7.758;2023-11-18T11:07:48;10.40;79.60
28845;DHT22;15976;47.938;7.758;2023-11-18T11:10:16;10.50;79.80
28845;DHT22;15976;47.938;7.758;2023-11-18T11:12:50;10.50;80.80
28845;DHT22;15976;47.938;7.758;2023-11-18T11:15:24;10.50;80.00
28845;DHT22;15976;47.938;7.758;2023-11-18T11:18:18;10.50;80.10
28845;DHT22;15976;47.938;7.758;2023-11-18T11:21:14;10.50;80.00
28845;DHT22;15976;47.938;7.758;2023-11-18T11:23:55;10.50;80.00
28845;DHT22;15976;47.938;7.758;2023-11-18T11:30:28;10.60;80.00
28845;DHT22;15976;47.938;7.758;2023-11-18T11:33:10;10.70;79.90
28845;DHT22;15976;47.938;7.758;2023-11-18T11:35:41;10.70;79.70
28845;DHT22;15976;47.938;7.758;2023-11-18T11:38:12;10.70;79.50
28845;DHT22;15976;47.938;7.758;2023-11-18T11:40:42;10.80;79.60
28845;DHT22;15976;47.938;7.758;2023-11-18T11:43:10;10.80;79.50
28845;DHT22;15976;47.938;7.758;2023-11-18T11:45:50;10.90;79.40
28845;DHT22;15976;47.938;7.758;2023-11-18T11:48:19;11.00;79.20
28845;DHT22;15976;47.938;7.758;2023-11-18T11:54:21;11.00;79.20
28845;DHT22;15976;47.938;7.758;2023-11-18T11:56:50;11.10;79.10
28845;DHT22;15976;47.938;7.758;2023-11-18T12:02:15;11.10;78.80
28845;DHT22;15976;47.938;7.758;2023-11-18T12:04:51;11.10;78.60
28845;DHT22;15976;47.938;7.758;2023-11-18T12:07:21;11.10;78.70
28845;DHT22;15976;47.938;7.758;2023-11-18T12:09:50;11.00;78.50
28845;DHT22;15976;47.938;7.758;2023-11-18T12:12:21;11.00;78.60
28845;DHT22;15976;47.938;7.758;2023-11-18T12:14:57;11.00;78.80
28845;DHT22;15976;47.938;7.758;2023-11-18T12:17:27;11.00;78.60
28845;DHT22;15976;47.938;7.758;2023-11-18T12:19:59;11.00;78.50
28845;DHT22;15976;47.938;7.758;2023-11-18T12:22:27;11.00;78.70
28845;DHT22;15976;47.938;7.758;2023-11-18T12:33:00;10.80;78.80
28845;DHT22;15976;47.938;7.758;2023-11-18T12:40:54;10.90;79.20
28845;DHT22;15976;47.938;7.758;2023-11-18T12:43:46;10.90;79.30
28845;DHT22;15976;47.938;7.758;2023-11-18T12:47:00;10.90;79.00
28845;DHT22;15976;47.938;7.758;2023-11-18T12:49:42;11.00;79.00
28845;DHT22;15976;47.938;7.758;2023-11-18T12:52:11;11.00;79.20
28845;DHT22;15976;47.938;7.758;2023-11-18T12:54:39;11.00;79.30
28845;DHT22;15976;47.938;7.758;2023-11-18T12:57:11;11.10;79.40
28845;DHT22;15976;47.938;7.758;2023-11-18T12:59:42;11.20;79.40
28845;DHT22;15976;47.938;7.758;2023-11-18T13:02:10;11.20;79.60
28845;DHT22;15976;47.938;7.758;2023-11-18T13:04:46;11.30;79.70
28845;DHT22;15976;47.938;7.758;2023-11-18T13:07:17;11.40;79.60
28845;DHT22;15976;47.938;7.758;2023-11-18T13:09:45;11.40;79.60
28845;DHT22;15976;47.938;7.758;2023-11-18T13:12:13;11.40;79.20
28845;DHT22;15976;47.938;7.758;2023-11-18T13:14:47;11.40;78.30
28845;DHT22;15976;47.938;7.758;2023-11-18T13:17:15;11.40;77.40
28845;DHT22;15976;47.938;7.758;2023-11-18T13:19:44;11.30;76.80
28845;DHT22;15976;47.938;7.758;2023-11-18T13:22:13;11.30;75.70
28845;DHT22;15976;47.938;7.758;2023-11-18T13:24:42;11.30;75.20
28845;DHT22;15976;47.938;7.758;2023-11-18T13:27:16;11.30;74.60
28845;DHT22;15976;47.938;7.758;2023-11-18T13:29:48;11.30;74.00
28845;DHT22;15976;47.938;7.758;2023-11-18T13:32:21;11.30;73.20
28845;DHT22;15976;47.938;7.758;2023-11-18T13:34:50;11.30;72.60
28845;DHT22;15976;47.938;7.758;2023-11-18T13:37:19;11.30;71.80
28845;DHT22;15976;47.938;7.758;2023-11-18T13:39:54;11.30;71.00
28845;DHT22;15976;47.938;7.758;2023-11-18T13:44:50;11.30;69.70
28845;DHT22;15976;47.938;7.758;2023-11-18T13:47:20;11.30;69.30
28845;DHT22;15976;47.938;7.758;2023-11-18T13:49:54;11.30;68.80
28845;DHT22;15976;47.938;7.758;2023-11-18T13:52:21;11.30;68.50
28845;DHT22;15976;47.938;7.758;2023-11-18T13:54:49;11.30;68.40
28845;DHT22;15976;47.938;7.758;2023-11-18T13:57:23;11.30;68.30
28845;DHT22;15976;47.938;7.758;2023-11-18T13:59:51;11.30;68.20
28845;DHT22;15976;47.938;7.758;2023-11-18T14:02:18;11.40;67.40
28845;DHT22;15976;47.938;7.758;2023-11-18T14:04:45;11.40;67.00
28845;DHT22;15976;47.938;7.758;2023-11-18T14:07:17;11.40;67.00
28845;DHT22;15976;47.938;7.758;2023-11-18T14:09:44;11.40;66.70
28845;DHT22;15976;47.938;7.758;2023-11-18T14:12:13;11.50;66.70
28845;DHT22;15976;47.938;7.758;2023-11-18T14:14:40;11.50;66.30
28845;DHT22;15976;47.938;7.758;2023-11-18T14:17:08;11.60;66.20
28845;DHT22;15976;47.938;7.758;2023-11-18T14:19:37;11.60;65.80
28845;DHT22;15976;47.938;7.758;2023-11-18T14:22:04;11.60;65.80
28845;DHT22;15976;47.938;7.758;2023-11-18T14:24:34;11.60;65.80
28845;DHT22;15976;47.938;7.758;2023-11-18T14:27:02;11.60;66.50
28845;DHT22;15976;47.938;7.758;2023-11-18T14:29:32;11.60;66.80
28845;DHT22;15976;47.938;7.758;2023-11-18T14:31:59;11.50;66.90
28845;DHT22;15976;47.938;7.758;2023-11-18T14:34:26;11.50;67.00
28845;DHT22;15976;47.938;7.758;2023-11-18T14:36:53;11.50;66.80
28845;DHT22;15976;47.938;7.758;2023-11-18T14:39:20;11.50;66.60
28845;DHT22;15976;47.938;7.758;2023-11-18T14:41:50;11.50;66.50
28845;DHT22;15976;47.938;7.758;2023-11-18T14:44:17;11.50;66.70
28845;DHT22;15976;47.938;7.758;2023-11-18T14:46:45;11.50;66.80
28845;DHT22;15976;47.938;7.758;2023-11-18T14:49:12;11.40;66.70
28845;DHT22;15976;47.938;7.758;2023-11-18T14:51:39;11.50;66.90
28845;DHT22;15976;47.938;7.758;2023-11-18T14:54:07;11.50;67.20
28845;DHT22;15976;47.938;7.758;2023-11-18T14:56:35;11.50;67.50
28845;DHT22;15976;47.938;7.758;2023-11-18T14:59:03;11.50;67.80
28845;DHT22;15976;47.938;7.758;2023-11-18T15:01:32;11.40;68.80
28845;DHT22;15976;47.938;7.758;2023-11-18T15:04:00;11.50;68.50
28845;DHT22;15976;47.938;7.758;2023-11-18T15:06:30;11.40;69.00
28845;DHT22;15976;47.938;7.758;2023-11-18T15:08:57;11.40;69.20
28845;DHT22;15976;47.938;7.758;2023-11-18T15:11:24;11.40;69.20
28845;DHT22;15976;47.938;7.758;2023-11-18T15:13:52;11.30;69.00
28845;DHT22;15976;47.938;7.758;2023-11-18T15:16:20;11.40;69.10
28845;DHT22;15976;47.938;7.758;2023-11-18T15:18:48;11.30;69.00
28845;DHT22;15976;47.938;7.758;2023-11-18T15:21:19;11.30;69.10
28845;DHT22;15976;47.938;7.758;2023-11-18T15:23:47;11.30;69.00
28845;DHT22;15976;47.938;7.758;2023-11-18T15:26:15;11.30;69.20
28845;DHT22;15976;47.938;7.758;2023-11-18T15:28:42;11.20;69.00
28845;DHT22;15976;47.938;7.758;2023-11-18T15:31:09;11.20;68.90
28845;DHT22;15976;47.938;7.758;2023-11-18T15:33:36;11.20;69.30
28845;DHT22;15976;47.938;7.758;2023-11-18T15:36:05;11.20;69.30
28845;DHT22;15976;47.938;7.758;2023-11-18T15:38:34;11.20;69.60
28845;DHT22;15976;47.938;7.758;2023-11-18T15:41:02;11.20;69.40
28845;DHT22;15976;47.938;7.758;2023-11-18T15:43:30;11.20;69.70
28845;DHT22;15976;47.938;7.758;2023-11-18T15:45:57;11.20;69.60
28845;DHT22;15976;47.938;7.758;2023-11-18T15:48:25;11.20;69.60
28845;DHT22;15976;47.938;7.758;2023-11-18T15:50:56;11.10;69.10
28845;DHT22;15976;47.938;7.758;2023-11-18T15:53:26;11.10;68.80
28845;DHT22;15976;47.938;7.758;2023-11-18T15:55:54;11.10;68.80
28845;DHT22;15976;47.938;7.758;2023-11-18T15:58:22;11.10;68.30
28845;DHT22;15976;47.938;7.758;2023-11-18T16:00:53;11.10;68.10
28845;DHT22;15976;47.938;7.758;2023-11-18T16:03:21;11.10;68.20
28845;DHT22;15976;47.938;7.758;2023-11-18T16:05:48;11.10;68.40
28845;DHT22;15976;47.938;7.758;2023-11-18T16:08:16;11.10;68.10
28845;DHT22;15976;47.938;7.758;2023-11-18T16:10:43;11.10;67.70
28845;DHT22;15976;47.938;7.758;2023-11-18T16:13:11;11.10;67.20
28845;DHT22;15976;47.938;7.758;2023-11-18T16:15:39;11.10;67.20
28845;DHT22;15976;47.938;7.758;2023-11-18T16:18:07;11.10;67.30
28845;DHT22;15976;47.938;7.758;2023-11-18T16:20:35;11.10;67.80
28845;DHT22;15976;47.938;7.758;2023-11-18T16:23:04;11.10;68.50
28845;DHT22;15976;47.938;7.758;2023-11-18T16:25:33;11.10;68.80